NCAR-RAP Real-Time Weather Data

Output produced by METARs form (08 May 2021  17:13 UTC)
found at http://weather.rap.ucar.edu/surface/
 
KABY 081653Z 32004KT 10SM CLR 25/03 A3018 RMK AO2 SLP217 T02500033
KABY 081553Z 00000KT 10SM CLR 24/04 A3020 RMK AO2 SLP224 T02390044
KABY 081453Z VRB03KT 10SM CLR 23/04 A3019 RMK AO2 SLP221 T02280044 51010
KABY 081353Z VRB03KT 10SM CLR 20/08 A3018 RMK AO2 SLP219 T02000078
KABY 081253Z 00000KT 10SM CLR 16/09 A3018 RMK AO2 SLP220 T01560089
KABY 081153Z 16003KT 10SM CLR 11/09 A3016 RMK AO2 SLP211 T01110089 10117 20089 52010
KABY 081053Z AUTO 00000KT 10SM CLR 09/07 A3015 RMK AO2 SLP211 T00940067
KABY 080953Z AUTO 00000KT 10SM CLR 09/07 A3013 RMK AO2 SLP202 T00890067
KABY 080853Z AUTO 00000KT 10SM CLR 10/07 A3013 RMK AO2 SLP200 T01000072 58001
KABY 080753Z AUTO 00000KT 10SM CLR 11/08 A3012 RMK AO2 SLP199 T01060078
KABY 080653Z AUTO 34003KT 10SM CLR 11/08 A3013 RMK AO2 SLP203 T01110078
KABY 080553Z AUTO 00000KT 10SM CLR 11/07 A3013 RMK AO2 SLP201 T01110072 10222 20111 51006
KABY 080453Z AUTO 31003KT 10SM CLR 13/07 A3012 RMK AO2 SLP199 T01280072 402670117
KABY 080353Z AUTO 32004KT 10SM CLR 13/07 A3012 RMK AO2 SLP197 T01280067
KABY 080253Z AUTO 33003KT 10SM CLR 14/07 A3011 RMK AO2 SLP195 T01440067 51017
KABY 080153Z AUTO 00000KT 10SM CLR 17/05 A3010 RMK AO2 SLP190 T01670050